sensor_id;sensor_type;location;lat;lon;timestamp;P1;durP1;ratioP1;P2;durP2;ratioP2
60919;SDS011;59039;52.108;19.942;2022-11-21T00:00:42;155.50;;;56.80;;
60919;SDS011;59039;52.108;19.942;2022-11-21T00:03:09;155.20;;;57.30;;
60919;SDS011;59039;52.108;19.942;2022-11-21T00:05:37;150.50;;;57.60;;
60919;SDS011;59039;52.108;19.942;2022-11-21T00:08:04;158.30;;;56.70;;
60919;SDS011;59039;52.108;19.942;2022-11-21T00:10:29;155.30;;;57.20;;
60919;SDS011;59039;52.108;19.942;2022-11-21T00:12:55;149.40;;;53.20;;
60919;SDS011;59039;52.108;19.942;2022-11-21T00:15:21;150.30;;;51.10;;
60919;SDS011;59039;52.108;19.942;2022-11-21T00:17:48;149.80;;;54.70;;
60919;SDS011;59039;52.108;19.942;2022-11-21T00:20:13;161.80;;;57.80;;
60919;SDS011;59039;52.108;19.942;2022-11-21T00:22:38;162.50;;;58.20;;
60919;SDS011;59039;52.108;19.942;2022-11-21T00:25:04;152.40;;;52.90;;
60919;SDS011;59039;52.108;19.942;2022-11-21T00:27:29;144.60;;;51.30;;
60919;SDS011;59039;52.108;19.942;2022-11-21T00:29:55;146.50;;;50.40;;
60919;SDS011;59039;52.108;19.942;2022-11-21T00:32:20;136.90;;;50.30;;
60919;SDS011;59039;52.108;19.942;2022-11-21T00:34:45;130.10;;;48.10;;
60919;SDS011;59039;52.108;19.942;2022-11-21T00:37:10;144.90;;;50.20;;
60919;SDS011;59039;52.108;19.942;2022-11-21T00:39:35;141.00;;;50.20;;
60919;SDS011;59039;52.108;19.942;2022-11-21T00:42:00;137.10;;;50.80;;
60919;SDS011;59039;52.108;19.942;2022-11-21T00:44:25;141.10;;;48.80;;
60919;SDS011;59039;52.108;19.942;2022-11-21T00:46:51;139.10;;;49.70;;
60919;SDS011;59039;52.108;19.942;2022-11-21T00:49:16;136.20;;;49.00;;
60919;SDS011;59039;52.108;19.942;2022-11-21T00:51:41;143.30;;;51.70;;
60919;SDS011;59039;52.108;19.942;2022-11-21T00:54:07;141.60;;;50.00;;
60919;SDS011;59039;52.108;19.942;2022-11-21T00:56:32;140.00;;;47.50;;
60919;SDS011;59039;52.108;19.942;2022-11-21T00:58:58;134.10;;;50.00;;
60919;SDS011;59039;52.108;19.942;2022-11-21T01:01:23;121.70;;;48.70;;
60919;SDS011;59039;52.108;19.942;2022-11-21T01:03:48;139.30;;;49.80;;
60919;SDS011;59039;52.108;19.942;2022-11-21T01:06:14;145.70;;;49.90;;
60919;SDS011;59039;52.108;19.942;2022-11-21T01:08:40;141.20;;;48.40;;
60919;SDS011;59039;52.108;19.942;2022-11-21T01:11:09;145.10;;;51.00;;
60919;SDS011;59039;52.108;19.942;2022-11-21T01:13:37;137.70;;;48.20;;
60919;SDS011;59039;52.108;19.942;2022-11-21T01:16:07;142.10;;;49.60;;
60919;SDS011;59039;52.108;19.942;2022-11-21T01:18:34;131.80;;;47.30;;
60919;SDS011;59039;52.108;19.942;2022-11-21T01:21:00;144.30;;;51.80;;
60919;SDS011;59039;52.108;19.942;2022-11-21T01:23:27;126.60;;;48.70;;
60919;SDS011;59039;52.108;19.942;2022-11-21T01:25:52;135.50;;;50.70;;
60919;SDS011;59039;52.108;19.942;2022-11-21T01:28:17;137.50;;;50.80;;
60919;SDS011;59039;52.108;19.942;2022-11-21T01:30:42;136.60;;;48.10;;
60919;SDS011;59039;52.108;19.942;2022-11-21T01:33:08;138.10;;;49.70;;
60919;SDS011;59039;52.108;19.942;2022-11-21T01:35:33;131.40;;;47.60;;
60919;SDS011;59039;52.108;19.942;2022-11-21T01:37:58;138.80;;;50.30;;
60919;SDS011;59039;52.108;19.942;2022-11-21T01:40:23;140.10;;;47.50;;
60919;SDS011;59039;52.108;19.942;2022-11-21T01:43:03;136.20;;;49.00;;
60919;SDS011;59039;52.108;19.942;2022-11-21T01:48:24;135.50;;;47.90;;
60919;SDS011;59039;52.108;19.942;2022-11-21T01:51:20;135.80;;;46.50;;
60919;SDS011;59039;52.108;19.942;2022-11-21T01:53:51;119.50;;;43.20;;
60919;SDS011;59039;52.108;19.942;2022-11-21T01:56:22;138.20;;;50.00;;
60919;SDS011;59039;52.108;19.942;2022-11-21T01:58:49;130.60;;;48.10;;
60919;SDS011;59039;52.108;19.942;2022-11-21T02:01:17;124.10;;;43.20;;
60919;SDS011;59039;52.108;19.942;2022-11-21T02:03:43;121.40;;;45.10;;
60919;SDS011;59039;52.108;19.942;2022-11-21T02:06:10;108.20;;;43.80;;
60919;SDS011;59039;52.108;19.942;2022-11-21T02:08:36;121.90;;;47.80;;
60919;SDS011;59039;52.108;19.942;2022-11-21T02:11:05;135.70;;;51.50;;
60919;SDS011;59039;52.108;19.942;2022-11-21T02:13:38;138.80;;;48.60;;
60919;SDS011;59039;52.108;19.942;2022-11-21T02:16:03;135.50;;;49.50;;
60919;SDS011;59039;52.108;19.942;2022-11-21T02:18:29;132.50;;;48.50;;
60919;SDS011;59039;52.108;19.942;2022-11-21T02:21:12;126.40;;;49.70;;
60919;SDS011;59039;52.108;19.942;2022-11-21T02:24:03;128.90;;;46.10;;
60919;SDS011;59039;52.108;19.942;2022-11-21T02:26:41;133.60;;;45.70;;
60919;SDS011;59039;52.108;19.942;2022-11-21T02:29:06;136.30;;;46.20;;
60919;SDS011;59039;52.108;19.942;2022-11-21T02:31:32;137.00;;;47.00;;
60919;SDS011;59039;52.108;19.942;2022-11-21T02:33:57;131.70;;;49.60;;
60919;SDS011;59039;52.108;19.942;2022-11-21T02:36:30;146.40;;;51.60;;
60919;SDS011;59039;52.108;19.942;2022-11-21T02:39:00;129.80;;;46.60;;
60919;SDS011;59039;52.108;19.942;2022-11-21T02:41:26;136.20;;;46.80;;
60919;SDS011;59039;52.108;19.942;2022-11-21T02:46:46;126.70;;;46.30;;
60919;SDS011;59039;52.108;19.942;2022-11-21T02:49:13;130.60;;;47.20;;
60919;SDS011;59039;52.108;19.942;2022-11-21T02:51:40;129.90;;;45.80;;
60919;SDS011;59039;52.108;19.942;2022-11-21T02:54:05;125.80;;;47.50;;
60919;SDS011;59039;52.108;19.942;2022-11-21T02:56:31;134.50;;;48.90;;
60919;SDS011;59039;52.108;19.942;2022-11-21T02:58:56;133.20;;;49.70;;
60919;SDS011;59039;52.108;19.942;2022-11-21T03:01:21;126.90;;;50.80;;
60919;SDS011;59039;52.108;19.942;2022-11-21T03:03:46;132.80;;;53.40;;
60919;SDS011;59039;52.108;19.942;2022-11-21T03:06:11;130.80;;;52.50;;
60919;SDS011;59039;52.108;19.942;2022-11-21T03:08:36;119.40;;;46.40;;
60919;SDS011;59039;52.108;19.942;2022-11-21T03:11:02;130.80;;;47.90;;
60919;SDS011;59039;52.108;19.942;2022-11-21T03:13:27;129.80;;;48.20;;
60919;SDS011;59039;52.108;19.942;2022-11-21T03:15:52;121.30;;;47.60;;
60919;SDS011;59039;52.108;19.942;2022-11-21T03:18:17;131.80;;;48.60;;
60919;SDS011;59039;52.108;19.942;2022-11-21T03:20:42;132.60;;;48.10;;
60919;SDS011;59039;52.108;19.942;2022-11-21T03:23:07;116.70;;;46.20;;
60919;SDS011;59039;52.108;19.942;2022-11-21T03:25:33;111.90;;;44.20;;
60919;SDS011;59039;52.108;19.942;2022-11-21T03:27:58;122.30;;;44.70;;
60919;SDS011;59039;52.108;19.942;2022-11-21T03:30:23;125.90;;;47.30;;
60919;SDS011;59039;52.108;19.942;2022-11-21T03:32:50;116.60;;;44.50;;
60919;SDS011;59039;52.108;19.942;2022-11-21T03:35:19;111.90;;;44.40;;
60919;SDS011;59039;52.108;19.942;2022-11-21T03:37:45;122.20;;;45.10;;
60919;SDS011;59039;52.108;19.942;2022-11-21T03:40:12;107.40;;;40.60;;
60919;SDS011;59039;52.108;19.942;2022-11-21T03:42:37;122.20;;;42.00;;
60919;SDS011;59039;52.108;19.942;2022-11-21T03:45:03;111.90;;;44.10;;
60919;SDS011;59039;52.108;19.942;2022-11-21T03:47:28;108.60;;;41.20;;
60919;SDS011;59039;52.108;19.942;2022-11-21T03:49:53;110.20;;;41.60;;
60919;SDS011;59039;52.108;19.942;2022-11-21T03:52:19;109.30;;;44.10;;
60919;SDS011;59039;52.108;19.942;2022-11-21T03:54:44;114.30;;;42.20;;
60919;SDS011;59039;52.108;19.942;2022-11-21T03:57:09;108.00;;;40.30;;
60919;SDS011;59039;52.108;19.942;2022-11-21T03:59:34;113.40;;;43.00;;
60919;SDS011;59039;52.108;19.942;2022-11-21T04:01:59;116.50;;;42.10;;
60919;SDS011;59039;52.108;19.942;2022-11-21T04:04:25;105.80;;;38.70;;
60919;SDS011;59039;52.108;19.942;2022-11-21T04:06:50;120.30;;;41.60;;
60919;SDS011;59039;52.108;19.942;2022-11-21T04:09:15;109.30;;;42.80;;
60919;SDS011;59039;52.108;19.942;2022-11-21T04:11:40;130.30;;;45.70;;
60919;SDS011;59039;52.108;19.942;2022-11-21T04:14:05;222.40;;;68.10;;
60919;SDS011;59039;52.108;19.942;2022-11-21T04:16:31;216.00;;;62.30;;
60919;SDS011;59039;52.108;19.942;2022-11-21T04:18:56;235.20;;;70.10;;
60919;SDS011;59039;52.108;19.942;2022-11-21T04:21:21;189.40;;;54.40;;
60919;SDS011;59039;52.108;19.942;2022-11-21T04:23:46;124.50;;;46.70;;
60919;SDS011;59039;52.108;19.942;2022-11-21T04:26:11;111.80;;;44.70;;
60919;SDS011;59039;52.108;19.942;2022-11-21T04:28:36;132.70;;;45.70;;
60919;SDS011;59039;52.108;19.942;2022-11-21T04:31:05;129.50;;;46.80;;
60919;SDS011;59039;52.108;19.942;2022-11-21T04:33:32;121.90;;;45.30;;
60919;SDS011;59039;52.108;19.942;2022-11-21T04:35:57;109.50;;;42.70;;
60919;SDS011;59039;52.108;19.942;2022-11-21T04:38:22;110.10;;;45.00;;
60919;SDS011;59039;52.108;19.942;2022-11-21T04:40:47;112.40;;;44.60;;
60919;SDS011;59039;52.108;19.942;2022-11-21T04:43:12;113.00;;;44.00;;
60919;SDS011;59039;52.108;19.942;2022-11-21T04:45:38;108.80;;;40.70;;
60919;SDS011;59039;52.108;19.942;2022-11-21T04:48:03;99.80;;;38.90;;
60919;SDS011;59039;52.108;19.942;2022-11-21T04:50:28;123.00;;;43.30;;
60919;SDS011;59039;52.108;19.942;2022-11-21T04:52:54;98.60;;;41.10;;
60919;SDS011;59039;52.108;19.942;2022-11-21T04:55:21;110.60;;;42.70;;
60919;SDS011;59039;52.108;19.942;2022-11-21T04:57:48;131.30;;;45.40;;
60919;SDS011;59039;52.108;19.942;2022-11-21T05:00:14;116.90;;;45.00;;
60919;SDS011;59039;52.108;19.942;2022-11-21T05:02:40;131.60;;;47.00;;
60919;SDS011;59039;52.108;19.942;2022-11-21T05:05:05;117.60;;;45.10;;
60919;SDS011;59039;52.108;19.942;2022-11-21T05:07:31;122.00;;;44.40;;
60919;SDS011;59039;52.108;19.942;2022-11-21T05:09:56;126.90;;;42.70;;
60919;SDS011;59039;52.108;19.942;2022-11-21T05:12:21;105.60;;;41.90;;
60919;SDS011;59039;52.108;19.942;2022-11-21T05:14:46;114.60;;;41.40;;
60919;SDS011;59039;52.108;19.942;2022-11-21T05:17:11;116.80;;;44.50;;
60919;SDS011;59039;52.108;19.942;2022-11-21T05:19:37;99.30;;;40.10;;
60919;SDS011;59039;52.108;19.942;2022-11-21T05:22:02;117.60;;;39.60;;
60919;SDS011;59039;52.108;19.942;2022-11-21T05:24:27;116.20;;;44.30;;
60919;SDS011;59039;52.108;19.942;2022-11-21T05:26:53;110.40;;;41.20;;
60919;SDS011;59039;52.108;19.942;2022-11-21T05:29:18;109.50;;;40.70;;
60919;SDS011;59039;52.108;19.942;2022-11-21T05:31:43;91.90;;;35.10;;
60919;SDS011;59039;52.108;19.942;2022-11-21T05:34:09;114.20;;;40.60;;
60919;SDS011;59039;52.108;19.942;2022-11-21T05:36:34;104.00;;;39.60;;
60919;SDS011;59039;52.108;19.942;2022-11-21T05:38:59;109.00;;;39.60;;
60919;SDS011;59039;52.108;19.942;2022-11-21T05:41:24;90.20;;;38.80;;
60919;SDS011;59039;52.108;19.942;2022-11-21T05:43:49;91.00;;;38.10;;
60919;SDS011;59039;52.108;19.942;2022-11-21T05:46:15;98.60;;;38.30;;
60919;SDS011;59039;52.108;19.942;2022-11-21T05:48:42;104.80;;;39.20;;
60919;SDS011;59039;52.108;19.942;2022-11-21T05:51:07;89.80;;;36.00;;
60919;SDS011;59039;52.108;19.942;2022-11-21T05:53:33;108.60;;;37.70;;
60919;SDS011;59039;52.108;19.942;2022-11-21T05:56:09;78.90;;;35.60;;
60919;SDS011;59039;52.108;19.942;2022-11-21T05:58:36;107.10;;;40.50;;
60919;SDS011;59039;52.108;19.942;2022-11-21T06:01:02;107.40;;;38.40;;
60919;SDS011;59039;52.108;19.942;2022-11-21T06:03:30;99.10;;;40.10;;
60919;SDS011;59039;52.108;19.942;2022-11-21T06:08:34;110.30;;;41.00;;
60919;SDS011;59039;52.108;19.942;2022-11-21T06:11:01;93.90;;;37.40;;
60919;SDS011;59039;52.108;19.942;2022-11-21T06:13:28;125.00;;;46.50;;
60919;SDS011;59039;52.108;19.942;2022-11-21T06:16:15;103.40;;;39.20;;
60919;SDS011;59039;52.108;19.942;2022-11-21T06:18:43;95.40;;;36.80;;
60919;SDS011;59039;52.108;19.942;2022-11-21T06:21:13;93.70;;;35.10;;
60919;SDS011;59039;52.108;19.942;2022-11-21T06:23:41;87.80;;;35.10;;
60919;SDS011;59039;52.108;19.942;2022-11-21T06:26:07;94.10;;;35.50;;
60919;SDS011;59039;52.108;19.942;2022-11-21T06:28:36;92.50;;;35.80;;
60919;SDS011;59039;52.108;19.942;2022-11-21T06:31:03;93.60;;;36.80;;
60919;SDS011;59039;52.108;19.942;2022-11-21T06:33:29;87.30;;;37.00;;
60919;SDS011;59039;52.108;19.942;2022-11-21T06:35:55;103.50;;;38.00;;
60919;SDS011;59039;52.108;19.942;2022-11-21T06:38:20;86.40;;;37.20;;
60919;SDS011;59039;52.108;19.942;2022-11-21T06:40:45;88.20;;;35.00;;
60919;SDS011;59039;52.108;19.942;2022-11-21T06:43:11;90.00;;;36.90;;
60919;SDS011;59039;52.108;19.942;2022-11-21T06:45:36;104.80;;;39.80;;
60919;SDS011;59039;52.108;19.942;2022-11-21T06:48:01;94.50;;;38.50;;
60919;SDS011;59039;52.108;19.942;2022-11-21T06:50:27;100.60;;;39.60;;
60919;SDS011;59039;52.108;19.942;2022-11-21T06:52:52;84.60;;;37.20;;
60919;SDS011;59039;52.108;19.942;2022-11-21T06:55:17;86.50;;;39.30;;
60919;SDS011;59039;52.108;19.942;2022-11-21T06:57:43;97.50;;;37.30;;
60919;SDS011;59039;52.108;19.942;2022-11-21T07:00:08;93.30;;;40.20;;
60919;SDS011;59039;52.108;19.942;2022-11-21T07:02:34;88.20;;;38.60;;
60919;SDS011;59039;52.108;19.942;2022-11-21T07:04:59;79.50;;;34.30;;
60919;SDS011;59039;52.108;19.942;2022-11-21T07:07:24;78.40;;;31.40;;
60919;SDS011;59039;52.108;19.942;2022-11-21T07:09:49;96.50;;;40.00;;
60919;SDS011;59039;52.108;19.942;2022-11-21T07:12:14;93.00;;;37.00;;
60919;SDS011;59039;52.108;19.942;2022-11-21T07:14:39;72.70;;;32.60;;
60919;SDS011;59039;52.108;19.942;2022-11-21T07:17:05;90.60;;;38.00;;
60919;SDS011;59039;52.108;19.942;2022-11-21T07:19:30;85.80;;;37.90;;
60919;SDS011;59039;52.108;19.942;2022-11-21T07:21:55;89.00;;;37.70;;
60919;SDS011;59039;52.108;19.942;2022-11-21T07:24:20;99.50;;;39.30;;
60919;SDS011;59039;52.108;19.942;2022-11-21T07:26:45;113.40;;;43.90;;
60919;SDS011;59039;52.108;19.942;2022-11-21T07:29:11;84.20;;;36.20;;
60919;SDS011;59039;52.108;19.942;2022-11-21T07:31:36;78.00;;;35.20;;
60919;SDS011;59039;52.108;19.942;2022-11-21T07:34:01;78.30;;;32.50;;
60919;SDS011;59039;52.108;19.942;2022-11-21T07:36:26;72.80;;;33.40;;
60919;SDS011;59039;52.108;19.942;2022-11-21T07:38:51;90.70;;;34.70;;
60919;SDS011;59039;52.108;19.942;2022-11-21T07:41:16;80.70;;;32.50;;
60919;SDS011;59039;52.108;19.942;2022-11-21T07:43:41;79.10;;;35.30;;
60919;SDS011;59039;52.108;19.942;2022-11-21T07:46:07;86.80;;;36.70;;
60919;SDS011;59039;52.108;19.942;2022-11-21T07:48:32;79.60;;;36.60;;
60919;SDS011;59039;52.108;19.942;2022-11-21T07:50:57;99.00;;;41.60;;
60919;SDS011;59039;52.108;19.942;2022-11-21T07:53:22;102.40;;;42.70;;
60919;SDS011;59039;52.108;19.942;2022-11-21T07:55:47;96.50;;;42.90;;
60919;SDS011;59039;52.108;19.942;2022-11-21T07:58:14;108.80;;;45.10;;
60919;SDS011;59039;52.108;19.942;2022-11-21T08:00:40;95.50;;;41.40;;
60919;SDS011;59039;52.108;19.942;2022-11-21T08:03:06;94.50;;;41.20;;
60919;SDS011;59039;52.108;19.942;2022-11-21T08:05:34;99.70;;;41.40;;
60919;SDS011;59039;52.108;19.942;2022-11-21T08:08:00;97.20;;;46.40;;
60919;SDS011;59039;52.108;19.942;2022-11-21T08:10:25;89.30;;;39.80;;
60919;SDS011;59039;52.108;19.942;2022-11-21T08:12:50;89.10;;;36.50;;
60919;SDS011;59039;52.108;19.942;2022-11-21T08:15:16;94.80;;;38.30;;
60919;SDS011;59039;52.108;19.942;2022-11-21T08:17:41;82.70;;;34.80;;
60919;SDS011;59039;52.108;19.942;2022-11-21T08:20:06;96.90;;;40.10;;
60919;SDS011;59039;52.108;19.942;2022-11-21T08:22:39;99.60;;;41.10;;
60919;SDS011;59039;52.108;19.942;2022-11-21T08:25:05;102.30;;;41.60;;
60919;SDS011;59039;52.108;19.942;2022-11-21T08:27:32;100.70;;;40.10;;
60919;SDS011;59039;52.108;19.942;2022-11-21T08:29:57;104.70;;;40.80;;
60919;SDS011;59039;52.108;19.942;2022-11-21T08:32:23;90.60;;;37.50;;
60919;SDS011;59039;52.108;19.942;2022-11-21T08:34:48;89.60;;;35.90;;
60919;SDS011;59039;52.108;19.942;2022-11-21T08:37:13;88.40;;;35.10;;
60919;SDS011;59039;52.108;19.942;2022-11-21T08:39:38;77.30;;;29.40;;
60919;SDS011;59039;52.108;19.942;2022-11-21T08:42:03;65.30;;;27.60;;
60919;SDS011;59039;52.108;19.942;2022-11-21T08:44:29;91.00;;;38.90;;
60919;SDS011;59039;52.108;19.942;2022-11-21T08:46:58;78.70;;;33.70;;
60919;SDS011;59039;52.108;19.942;2022-11-21T08:49:24;83.40;;;34.60;;
60919;SDS011;59039;52.108;19.942;2022-11-21T08:51:49;82.10;;;35.40;;
60919;SDS011;59039;52.108;19.942;2022-11-21T08:54:16;75.00;;;33.90;;
60919;SDS011;59039;52.108;19.942;2022-11-21T08:56:42;78.80;;;33.50;;
60919;SDS011;59039;52.108;19.942;2022-11-21T08:59:07;85.00;;;33.30;;
60919;SDS011;59039;52.108;19.942;2022-11-21T09:01:32;79.10;;;32.80;;
60919;SDS011;59039;52.108;19.942;2022-11-21T09:03:58;82.40;;;31.20;;
60919;SDS011;59039;52.108;19.942;2022-11-21T09:06:23;80.70;;;29.70;;
60919;SDS011;59039;52.108;19.942;2022-11-21T09:08:48;79.50;;;32.40;;
60919;SDS011;59039;52.108;19.942;2022-11-21T09:11:13;85.50;;;34.40;;
60919;SDS011;59039;52.108;19.942;2022-11-21T09:13:38;76.20;;;32.30;;
60919;SDS011;59039;52.108;19.942;2022-11-21T09:16:04;74.70;;;29.10;;
60919;SDS011;59039;52.108;19.942;2022-11-21T09:18:29;80.90;;;32.70;;
60919;SDS011;59039;52.108;19.942;2022-11-21T09:20:54;114.90;;;41.90;;
60919;SDS011;59039;52.108;19.942;2022-11-21T09:23:19;101.20;;;35.20;;
60919;SDS011;59039;52.108;19.942;2022-11-21T09:25:44;98.00;;;35.00;;
60919;SDS011;59039;52.108;19.942;2022-11-21T09:28:11;77.90;;;32.30;;
60919;SDS011;59039;52.108;19.942;2022-11-21T09:30:38;92.70;;;32.00;;
60919;SDS011;59039;52.108;19.942;2022-11-21T09:33:05;119.20;;;38.90;;
60919;SDS011;59039;52.108;19.942;2022-11-21T09:35:32;121.10;;;39.10;;
60919;SDS011;59039;52.108;19.942;2022-11-21T09:37:57;99.70;;;36.30;;
60919;SDS011;59039;52.108;19.942;2022-11-21T09:40:23;101.70;;;35.90;;
60919;SDS011;59039;52.108;19.942;2022-11-21T09:45:39;108.40;;;35.30;;
60919;SDS011;59039;52.108;19.942;2022-11-21T09:48:10;88.30;;;35.80;;
60919;SDS011;59039;52.108;19.942;2022-11-21T09:50:38;96.90;;;35.30;;
60919;SDS011;59039;52.108;19.942;2022-11-21T09:53:16;96.90;;;34.30;;
60919;SDS011;59039;52.108;19.942;2022-11-21T09:58:22;114.60;;;37.10;;
60919;SDS011;59039;52.108;19.942;2022-11-21T10:01:02;107.80;;;39.00;;
60919;SDS011;59039;52.108;19.942;2022-11-21T10:03:29;89.70;;;35.20;;
60919;SDS011;59039;52.108;19.942;2022-11-21T10:06:02;96.80;;;35.80;;
60919;SDS011;59039;52.108;19.942;2022-11-21T10:14:26;92.70;;;36.60;;
60919;SDS011;59039;52.108;19.942;2022-11-21T10:23:03;95.90;;;38.30;;
60919;SDS011;59039;52.108;19.942;2022-11-21T10:25:49;81.90;;;33.90;;
60919;SDS011;59039;52.108;19.942;2022-11-21T10:28:47;72.00;;;30.10;;
60919;SDS011;59039;52.108;19.942;2022-11-21T10:31:18;79.80;;;32.40;;
60919;SDS011;59039;52.108;19.942;2022-11-21T10:33:45;64.20;;;28.30;;
60919;SDS011;59039;52.108;19.942;2022-11-21T10:39:06;62.90;;;26.00;;
60919;SDS011;59039;52.108;19.942;2022-11-21T10:44:31;66.10;;;26.80;;
60919;SDS011;59039;52.108;19.942;2022-11-21T10:46:59;75.00;;;30.30;;
60919;SDS011;59039;52.108;19.942;2022-11-21T10:49:26;66.00;;;28.10;;
60919;SDS011;59039;52.108;19.942;2022-11-21T10:57:27;67.30;;;31.00;;
60919;SDS011;59039;52.108;19.942;2022-11-21T11:02:38;45.60;;;20.20;;
60919;SDS011;59039;52.108;19.942;2022-11-21T11:07:59;60.40;;;26.00;;
60919;SDS011;59039;52.108;19.942;2022-11-21T11:13:14;59.50;;;25.50;;
60919;SDS011;59039;52.108;19.942;2022-11-21T11:18:40;61.90;;;23.90;;
60919;SDS011;59039;52.108;19.942;2022-11-21T11:23:46;45.50;;;20.80;;
60919;SDS011;59039;52.108;19.942;2022-11-21T11:26:26;57.60;;;24.30;;
60919;SDS011;59039;52.108;19.942;2022-11-21T11:34:47;50.00;;;21.50;;
60919;SDS011;59039;52.108;19.942;2022-11-21T11:43:05;49.10;;;23.50;;
60919;SDS011;59039;52.108;19.942;2022-11-21T11:48:45;42.50;;;20.30;;
60919;SDS011;59039;52.108;19.942;2022-11-21T11:51:28;49.40;;;21.90;;
60919;SDS011;59039;52.108;19.942;2022-11-21T11:53:58;47.00;;;21.00;;
60919;SDS011;59039;52.108;19.942;2022-11-21T11:56:29;49.50;;;24.10;;
60919;SDS011;59039;52.108;19.942;2022-11-21T12:01:59;41.30;;;21.10;;
60919;SDS011;59039;52.108;19.942;2022-11-21T12:04:35;52.30;;;22.40;;
60919;SDS011;59039;52.108;19.942;2022-11-21T12:07:16;41.10;;;21.40;;
60919;SDS011;59039;52.108;19.942;2022-11-21T12:13:05;61.30;;;29.00;;
60919;SDS011;59039;52.108;19.942;2022-11-21T12:15:39;53.70;;;27.90;;
60919;SDS011;59039;52.108;19.942;2022-11-21T12:20:50;49.10;;;25.90;;
60919;SDS011;59039;52.108;19.942;2022-11-21T12:23:31;45.00;;;22.60;;
60919;SDS011;59039;52.108;19.942;2022-11-21T12:31:35;62.20;;;27.50;;
60919;SDS011;59039;52.108;19.942;2022-11-21T12:34:17;58.00;;;26.80;;
60919;SDS011;59039;52.108;19.942;2022-11-21T12:36:56;49.10;;;25.70;;
60919;SDS011;59039;52.108;19.942;2022-11-21T12:39:41;51.90;;;24.00;;
60919;SDS011;59039;52.108;19.942;2022-11-21T12:42:19;64.00;;;28.00;;
60919;SDS011;59039;52.108;19.942;2022-11-21T12:45:30;62.20;;;26.40;;
60919;SDS011;59039;52.108;19.942;2022-11-21T12:50:55;64.10;;;28.80;;
60919;SDS011;59039;52.108;19.942;2022-11-21T12:53:37;77.60;;;31.80;;
60919;SDS011;59039;52.108;19.942;2022-11-21T12:56:24;59.60;;;27.40;;
60919;SDS011;59039;52.108;19.942;2022-11-21T12:59:00;68.40;;;29.00;;
60919;SDS011;59039;52.108;19.942;2022-11-21T13:01:34;71.90;;;32.60;;
60919;SDS011;59039;52.108;19.942;2022-11-21T13:04:14;69.00;;;29.40;;
60919;SDS011;59039;52.108;19.942;2022-11-21T13:06:44;81.30;;;36.20;;
60919;SDS011;59039;52.108;19.942;2022-11-21T13:09:14;68.40;;;31.10;;
60919;SDS011;59039;52.108;19.942;2022-11-21T13:11:56;63.70;;;29.70;;
60919;SDS011;59039;52.108;19.942;2022-11-21T13:14:32;60.90;;;28.90;;
60919;SDS011;59039;52.108;19.942;2022-11-21T13:19:58;107.20;;;47.10;;
60919;SDS011;59039;52.108;19.942;2022-11-21T13:25:00;85.90;;;34.80;;
60919;SDS011;59039;52.108;19.942;2022-11-21T13:27:45;80.40;;;36.40;;
60919;SDS011;59039;52.108;19.942;2022-11-21T13:32:38;72.10;;;34.50;;
60919;SDS011;59039;52.108;19.942;2022-11-21T13:45:42;63.60;;;31.80;;
60919;SDS011;59039;52.108;19.942;2022-11-21T13:51:01;89.80;;;40.80;;
60919;SDS011;59039;52.108;19.942;2022-11-21T13:56:23;95.50;;;41.50;;
60919;SDS011;59039;52.108;19.942;2022-11-21T14:07:19;99.40;;;44.70;;
60919;SDS011;59039;52.108;19.942;2022-11-21T14:09:48;108.30;;;47.60;;
60919;SDS011;59039;52.108;19.942;2022-11-21T14:12:49;104.30;;;47.60;;
60919;SDS011;59039;52.108;19.942;2022-11-21T14:15:16;95.60;;;43.00;;
60919;SDS011;59039;52.108;19.942;2022-11-21T14:17:49;105.70;;;46.20;;
60919;SDS011;59039;52.108;19.942;2022-11-21T14:28:15;122.80;;;48.70;;
60919;SDS011;59039;52.108;19.942;2022-11-21T14:30:46;138.20;;;50.20;;
60919;SDS011;59039;52.108;19.942;2022-11-21T14:35:51;123.10;;;48.30;;
60919;SDS011;59039;52.108;19.942;2022-11-21T14:38:19;161.00;;;64.60;;
60919;SDS011;59039;52.108;19.942;2022-11-21T14:40:45;164.70;;;56.80;;
60919;SDS011;59039;52.108;19.942;2022-11-21T14:43:22;159.10;;;58.20;;
60919;SDS011;59039;52.108;19.942;2022-11-21T14:45:53;122.90;;;47.70;;
60919;SDS011;59039;52.108;19.942;2022-11-21T14:48:24;101.70;;;41.10;;
60919;SDS011;59039;52.108;19.942;2022-11-21T14:50:52;106.30;;;44.80;;
60919;SDS011;59039;52.108;19.942;2022-11-21T14:53:20;129.60;;;45.10;;
60919;SDS011;59039;52.108;19.942;2022-11-21T14:55:48;119.70;;;48.00;;
60919;SDS011;59039;52.108;19.942;2022-11-21T14:58:14;122.30;;;48.50;;
60919;SDS011;59039;52.108;19.942;2022-11-21T15:00:40;97.80;;;44.30;;
60919;SDS011;59039;52.108;19.942;2022-11-21T15:03:21;127.90;;;47.80;;
60919;SDS011;59039;52.108;19.942;2022-11-21T15:05:47;135.80;;;48.90;;
60919;SDS011;59039;52.108;19.942;2022-11-21T15:08:20;147.30;;;52.00;;
60919;SDS011;59039;52.108;19.942;2022-11-21T15:10:46;124.30;;;50.70;;
60919;SDS011;59039;52.108;19.942;2022-11-21T15:13:12;106.50;;;46.50;;
60919;SDS011;59039;52.108;19.942;2022-11-21T15:15:43;112.90;;;46.50;;
60919;SDS011;59039;52.108;19.942;2022-11-21T15:20:44;101.80;;;43.80;;
60919;SDS011;59039;52.108;19.942;2022-11-21T15:25:54;127.80;;;51.40;;
60919;SDS011;59039;52.108;19.942;2022-11-21T15:28:19;119.60;;;51.50;;
60919;SDS011;59039;52.108;19.942;2022-11-21T15:30:44;131.50;;;52.80;;
60919;SDS011;59039;52.108;19.942;2022-11-21T15:33:11;141.00;;;58.00;;
60919;SDS011;59039;52.108;19.942;2022-11-21T15:35:47;162.10;;;63.60;;
60919;SDS011;59039;52.108;19.942;2022-11-21T15:48:46;121.80;;;53.90;;
60919;SDS011;59039;52.108;19.942;2022-11-21T15:51:13;142.70;;;57.10;;
60919;SDS011;59039;52.108;19.942;2022-11-21T15:53:39;154.10;;;66.90;;
60919;SDS011;59039;52.108;19.942;2022-11-21T15:56:05;151.70;;;63.20;;
60919;SDS011;59039;52.108;19.942;2022-11-21T15:58:30;133.30;;;54.50;;
60919;SDS011;59039;52.108;19.942;2022-11-21T16:00:56;138.30;;;54.50;;
60919;SDS011;59039;52.108;19.942;2022-11-21T16:03:21;168.90;;;74.30;;
60919;SDS011;59039;52.108;19.942;2022-11-21T16:05:47;185.40;;;79.20;;
60919;SDS011;59039;52.108;19.942;2022-11-21T16:08:12;211.80;;;86.20;;
60919;SDS011;59039;52.108;19.942;2022-11-21T16:10:37;234.10;;;90.60;;
60919;SDS011;59039;52.108;19.942;2022-11-21T16:13:02;193.30;;;74.00;;
60919;SDS011;59039;52.108;19.942;2022-11-21T16:15:27;163.90;;;65.00;;
60919;SDS011;59039;52.108;19.942;2022-11-21T16:17:53;204.70;;;81.80;;
60919;SDS011;59039;52.108;19.942;2022-11-21T16:20:18;173.20;;;73.20;;
60919;SDS011;59039;52.108;19.942;2022-11-21T16:22:43;164.50;;;66.00;;
60919;SDS011;59039;52.108;19.942;2022-11-21T16:25:09;178.20;;;76.90;;
60919;SDS011;59039;52.108;19.942;2022-11-21T16:27:34;186.10;;;77.50;;